createdAt,value
2023-01-06T00:01:24.159Z,1.30
2023-01-06T00:03:52.487Z,1.20
2023-01-06T00:06:23.038Z,1.27
2023-01-06T00:08:52.216Z,1.10
2023-01-06T00:11:19.941Z,1.00
2023-01-06T00:13:47.914Z,1.23
2023-01-06T00:16:18.319Z,1.10
2023-01-06T00:18:46.386Z,1.30
2023-01-06T00:21:15.547Z,1.20
2023-01-06T00:23:43.538Z,1.50
2023-01-06T00:26:13.151Z,1.27
2023-01-06T00:28:40.957Z,1.40
2023-01-06T00:31:10.044Z,1.10
2023-01-06T00:33:38.363Z,1.37
2023-01-06T00:36:08.088Z,1.60
2023-01-06T00:38:37.343Z,1.40
2023-01-06T00:41:26.911Z,1.40
2023-01-06T00:43:56.490Z,1.00
2023-01-06T00:46:26.828Z,1.13
2023-01-06T00:49:04.739Z,1.30
2023-01-06T00:51:33.822Z,1.13
2023-01-06T00:54:02.311Z,1.30
2023-01-06T00:56:30.122Z,1.07
2023-01-06T00:58:59.274Z,1.17
2023-01-06T01:01:27.178Z,1.30
2023-01-06T01:03:54.997Z,1.30
2023-01-06T01:06:22.710Z,1.10
2023-01-06T01:08:55.110Z,1.10
2023-01-06T01:11:37.161Z,1.30
2023-01-06T01:14:06.262Z,1.23
2023-01-06T01:16:34.283Z,1.20
2023-01-06T01:19:02.106Z,1.07
2023-01-06T01:21:29.857Z,1.33
2023-01-06T01:23:57.603Z,1.00
2023-01-06T01:26:25.395Z,1.00
2023-01-06T01:28:53.285Z,1.27
2023-01-06T01:31:22.496Z,1.07
2023-01-06T01:33:50.720Z,0.90
2023-01-06T01:36:19.849Z,0.83
2023-01-06T01:38:47.700Z,1.10
2023-01-06T01:41:17.655Z,1.10
2023-01-06T01:43:47.265Z,1.10
2023-01-06T01:46:19.142Z,0.93
2023-01-06T01:48:49.182Z,0.90
2023-01-06T01:51:20.821Z,1.23
2023-01-06T01:53:52.776Z,1.00
2023-01-06T01:56:25.915Z,1.17
2023-01-06T01:58:57.222Z,1.20
2023-01-06T02:01:25.256Z,0.70
2023-01-06T02:03:54.568Z,0.80
2023-01-06T02:06:24.123Z,1.00
2023-01-06T02:08:57.590Z,1.13
2023-01-06T02:11:26.956Z,1.00
2023-01-06T02:14:06.569Z,1.00
2023-01-06T02:16:54.441Z,0.83
2023-01-06T02:19:57.626Z,0.70
2023-01-06T02:22:54.366Z,1.20
2023-01-06T02:26:07.382Z,0.70
2023-01-06T02:29:05.195Z,0.90
2023-01-06T02:31:55.360Z,0.90
2023-01-06T02:34:44.595Z,0.87
2023-01-06T02:37:29.697Z,0.80
2023-01-06T02:40:11.123Z,0.70
2023-01-06T02:42:46.033Z,0.80
2023-01-06T02:45:21.387Z,0.70
2023-01-06T02:48:01.631Z,0.67
2023-01-06T02:50:39.239Z,0.50
2023-01-06T02:53:13.551Z,0.63
2023-01-06T02:55:46.867Z,0.53
2023-01-06T02:58:19.760Z,0.80
2023-01-06T03:00:53.108Z,0.70
2023-01-06T03:03:28.177Z,0.63
2023-01-06T03:06:00.368Z,0.80
2023-01-06T03:08:30.948Z,0.97
2023-01-06T03:11:01.004Z,0.90
2023-01-06T03:13:34.607Z,0.80
2023-01-06T03:16:02.889Z,0.80
2023-01-06T03:18:33.799Z,0.60
2023-01-06T03:21:06.241Z,1.00
2023-01-06T03:23:35.206Z,0.80
2023-01-06T03:26:03.268Z,0.83
2023-01-06T03:28:31.125Z,0.60
2023-01-06T03:31:08.035Z,0.70
2023-01-06T03:33:45.716Z,0.80
2023-01-06T03:36:24.762Z,0.80
2023-01-06T03:39:01.392Z,1.07
2023-01-06T03:41:50.105Z,0.80
2023-01-06T03:44:30.702Z,0.90
2023-01-06T03:47:06.833Z,1.00
2023-01-06T03:49:43.763Z,0.83
2023-01-06T03:52:19.213Z,0.70
2023-01-06T03:54:55.883Z,0.70
2023-01-06T03:57:26.444Z,0.80
2023-01-06T03:59:58.523Z,0.80
2023-01-06T04:02:26.941Z,0.67
2023-01-06T04:05:12.484Z,0.77
2023-01-06T04:07:41.123Z,0.60
2023-01-06T04:10:10.105Z,0.90
2023-01-06T04:12:40.993Z,0.60
2023-01-06T04:15:11.001Z,0.70
2023-01-06T04:17:39.279Z,0.70
2023-01-06T04:20:10.983Z,0.90
2023-01-06T04:22:38.811Z,0.60
2023-01-06T04:25:07.687Z,0.80
2023-01-06T04:27:35.481Z,0.70
2023-01-06T04:30:03.323Z,0.70
2023-01-06T04:32:31.098Z,0.50
2023-01-06T04:34:58.882Z,0.60
2023-01-06T04:37:28.011Z,0.70
2023-01-06T04:39:55.792Z,0.80
2023-01-06T04:42:23.524Z,0.80
2023-01-06T04:44:51.284Z,0.70
2023-01-06T04:47:19.167Z,0.60
2023-01-06T04:49:46.892Z,0.50
2023-01-06T04:52:14.632Z,0.70
2023-01-06T04:54:43.751Z,0.63
2023-01-06T04:57:11.496Z,0.70
2023-01-06T04:59:39.319Z,0.70
2023-01-06T05:02:07.107Z,0.57
2023-01-06T05:04:47.052Z,0.67
2023-01-06T05:07:15.328Z,0.70
2023-01-06T05:09:44.456Z,0.50
2023-01-06T05:12:12.216Z,0.83
2023-01-06T05:14:39.979Z,0.53
2023-01-06T05:17:07.901Z,0.63
2023-01-06T05:19:35.706Z,0.60
2023-01-06T05:22:03.455Z,0.70
2023-01-06T05:24:31.364Z,0.70
2023-01-06T05:27:00.455Z,0.50
2023-01-06T05:29:28.218Z,0.70
2023-01-06T05:31:55.966Z,0.60
2023-01-06T05:34:23.795Z,0.60
2023-01-06T05:36:51.555Z,0.70
2023-01-06T05:39:19.392Z,0.73
2023-01-06T05:41:47.076Z,0.50
2023-01-06T05:44:16.213Z,0.60
2023-01-06T05:46:43.932Z,0.80
2023-01-06T05:49:11.981Z,0.50
2023-01-06T05:51:39.719Z,0.50
2023-01-06T05:54:09.711Z,0.50
2023-01-06T05:56:37.844Z,0.60
2023-01-06T05:59:05.732Z,0.60
2023-01-06T06:01:34.996Z,0.70
2023-01-06T06:04:02.816Z,0.60
2023-01-06T06:06:31.052Z,0.60
2023-01-06T06:08:59.159Z,0.57
2023-01-06T06:11:27.003Z,0.83
2023-01-06T06:13:56.420Z,0.50
2023-01-06T06:16:26.309Z,0.47
2023-01-06T06:18:57.279Z,0.80
2023-01-06T06:21:26.913Z,0.70
2023-01-06T06:23:55.834Z,0.70
2023-01-06T06:26:24.536Z,1.07
2023-01-06T06:28:52.806Z,1.00
2023-01-06T06:31:22.986Z,0.97
2023-01-06T06:33:51.939Z,0.83
2023-01-06T06:36:21.419Z,0.80
2023-01-06T06:38:50.758Z,0.90
2023-01-06T06:41:19.666Z,0.63
2023-01-06T06:43:47.399Z,0.77
2023-01-06T06:46:15.153Z,0.60
2023-01-06T06:48:42.916Z,0.90
2023-01-06T06:51:13.123Z,0.73
2023-01-06T06:53:42.333Z,0.70
2023-01-06T06:56:12.037Z,0.60
2023-01-06T06:58:40.812Z,0.70
2023-01-06T07:01:10.918Z,0.63
2023-01-06T07:03:39.687Z,0.63
2023-01-06T07:06:11.147Z,0.70
2023-01-06T07:08:39.006Z,0.90
2023-01-06T07:11:08.107Z,1.10
2023-01-06T07:13:35.898Z,1.10
2023-01-06T07:16:03.721Z,1.10
2023-01-06T07:18:31.469Z,1.03
2023-01-06T07:20:59.286Z,1.23
2023-01-06T07:23:27.244Z,1.23
2023-01-06T07:25:55.801Z,1.70
2023-01-06T07:28:25.528Z,1.23
2023-01-06T07:30:53.936Z,1.07
2023-01-06T07:33:22.596Z,1.40
2023-01-06T07:35:53.679Z,1.17
2023-01-06T07:38:22.035Z,1.10
2023-01-06T07:40:49.772Z,1.10
2023-01-06T07:43:18.063Z,1.43
2023-01-06T07:45:49.046Z,1.20
2023-01-06T07:48:21.132Z,1.20
2023-01-06T07:50:49.011Z,1.10
2023-01-06T07:53:16.976Z,1.10
2023-01-06T07:55:51.911Z,1.30
2023-01-06T07:58:19.806Z,1.30
2023-01-06T08:00:49.003Z,1.30
2023-01-06T08:03:18.783Z,1.80
2023-01-06T08:05:46.618Z,1.10
2023-01-06T08:08:14.314Z,1.20
2023-01-06T08:10:43.128Z,1.30
2023-01-06T08:13:11.727Z,1.40
2023-01-06T08:15:39.907Z,1.10
2023-01-06T08:18:09.330Z,1.07
2023-01-06T08:20:37.118Z,1.10
2023-01-06T08:23:04.980Z,1.23
2023-01-06T08:25:32.877Z,0.80
2023-01-06T08:28:00.949Z,1.00
2023-01-06T08:30:29.352Z,0.93
2023-01-06T08:32:58.164Z,1.00
2023-01-06T08:35:27.656Z,0.80
2023-01-06T08:37:55.372Z,0.80
2023-01-06T08:40:23.134Z,0.80
2023-01-06T08:42:50.972Z,1.17
2023-01-06T08:45:18.959Z,0.77
2023-01-06T08:47:46.692Z,0.60
2023-01-06T08:50:14.520Z,0.80
2023-01-06T08:52:43.660Z,0.80
2023-01-06T08:55:11.552Z,0.60
2023-01-06T08:57:39.352Z,0.83
2023-01-06T09:00:08.577Z,0.50
2023-01-06T09:02:36.362Z,0.50
2023-01-06T09:05:04.619Z,0.60
2023-01-06T09:07:32.682Z,0.60
2023-01-06T09:10:01.867Z,0.70
2023-01-06T09:12:29.627Z,0.60
2023-01-06T09:14:57.377Z,0.70
2023-01-06T09:17:25.225Z,0.67
2023-01-06T09:19:53.044Z,0.83
2023-01-06T09:22:21.000Z,0.80
2023-01-06T09:24:48.813Z,0.63
2023-01-06T09:27:18.170Z,0.53
2023-01-06T09:29:45.954Z,0.80
2023-01-06T09:32:13.772Z,0.70
2023-01-06T09:34:41.564Z,0.60
2023-01-06T09:37:09.796Z,0.47
2023-01-06T09:39:38.112Z,0.53
2023-01-06T09:42:23.617Z,0.50
2023-01-06T09:44:57.084Z,0.70
2023-01-06T09:47:30.331Z,0.70
2023-01-06T09:50:04.032Z,0.60
2023-01-06T09:52:39.531Z,0.60
2023-01-06T09:55:14.304Z,0.87
2023-01-06T09:57:48.398Z,0.70
2023-01-06T10:00:23.788Z,0.77
2023-01-06T10:02:52.852Z,1.03
2023-01-06T10:05:23.712Z,0.80
2023-01-06T10:07:57.686Z,0.70
2023-01-06T10:10:37.753Z,0.80
2023-01-06T10:13:25.997Z,0.63
2023-01-06T10:16:04.356Z,0.73
2023-01-06T10:18:41.353Z,0.90
2023-01-06T10:21:16.726Z,0.80
2023-01-06T10:24:12.035Z,0.90
2023-01-06T10:26:44.817Z,0.83
2023-01-06T10:29:17.646Z,0.90
2023-01-06T10:31:47.124Z,0.80
2023-01-06T10:34:22.514Z,0.93
2023-01-06T10:36:56.245Z,0.70
2023-01-06T10:39:27.825Z,0.70
2023-01-06T10:42:17.930Z,0.87
2023-01-06T10:44:47.264Z,0.50
2023-01-06T10:47:22.013Z,0.60
2023-01-06T10:49:49.991Z,0.30
2023-01-06T10:52:18.102Z,0.80
2023-01-06T10:54:46.955Z,0.50
2023-01-06T10:57:22.907Z,0.80
2023-01-06T11:00:17.202Z,0.90
2023-01-06T11:02:46.836Z,0.90
2023-01-06T11:05:19.868Z,0.60
2023-01-06T11:07:56.256Z,0.60
2023-01-06T11:10:30.182Z,1.00
2023-01-06T11:13:01.091Z,0.50
2023-01-06T11:15:37.419Z,0.50
2023-01-06T11:18:07.105Z,0.80
2023-01-06T11:20:36.227Z,0.93
2023-01-06T11:23:22.909Z,0.80
2023-01-06T11:26:07.245Z,0.50
2023-01-06T11:28:35.000Z,0.97
2023-01-06T11:31:08.077Z,0.70
2023-01-06T11:33:38.926Z,0.67
2023-01-06T11:36:12.886Z,1.00
2023-01-06T11:38:46.242Z,0.70
2023-01-06T11:41:21.872Z,0.97
2023-01-06T11:43:51.749Z,0.63
2023-01-06T11:46:25.623Z,0.70
2023-01-06T11:49:01.748Z,0.80
2023-01-06T11:51:45.441Z,0.80
2023-01-06T11:54:24.607Z,1.30
2023-01-06T11:56:59.903Z,0.70
2023-01-06T11:59:39.352Z,0.70
2023-01-06T12:02:18.774Z,1.07
2023-01-06T12:04:50.835Z,0.57
2023-01-06T12:07:25.981Z,1.27
2023-01-06T12:09:55.907Z,0.80
2023-01-06T12:12:26.974Z,0.77
2023-01-06T12:14:56.758Z,0.83
2023-01-06T12:17:37.865Z,0.90
2023-01-06T12:20:13.385Z,0.97
2023-01-06T12:22:44.870Z,0.80
2023-01-06T12:25:18.764Z,0.80
2023-01-06T12:27:52.287Z,0.70
2023-01-06T12:30:26.335Z,0.80
2023-01-06T12:32:59.684Z,0.73
2023-01-06T12:35:32.522Z,0.90
2023-01-06T12:38:05.620Z,0.83
2023-01-06T12:40:40.376Z,0.80
2023-01-06T12:43:16.685Z,0.60
2023-01-06T12:45:57.301Z,0.77
2023-01-06T12:48:38.033Z,0.50
2023-01-06T12:51:11.977Z,0.80
2023-01-06T12:53:44.936Z,0.50
2023-01-06T12:56:28.822Z,0.37
2023-01-06T12:59:06.182Z,0.50
2023-01-06T13:01:40.992Z,0.70
2023-01-06T13:04:44.116Z,0.60
2023-01-06T13:07:28.675Z,0.50
2023-01-06T13:10:07.544Z,0.60
2023-01-06T13:13:15.993Z,0.47
2023-01-06T13:15:46.545Z,0.40
2023-01-06T13:18:20.261Z,0.40
2023-01-06T13:20:53.169Z,0.80
2023-01-06T13:23:38.303Z,0.47
2023-01-06T13:26:38.201Z,0.67
2023-01-06T13:29:17.330Z,0.60
2023-01-06T13:32:23.247Z,0.50
2023-01-06T13:35:30.414Z,0.50
2023-01-06T13:38:12.529Z,0.40
2023-01-06T13:40:44.560Z,0.50
2023-01-06T13:43:20.254Z,0.60
2023-01-06T13:45:52.999Z,0.60
2023-01-06T13:48:25.689Z,0.70
2023-01-06T13:50:53.637Z,0.40
2023-01-06T13:53:24.034Z,0.60
2023-01-06T13:56:28.426Z,0.40
2023-01-06T13:59:19.829Z,0.50
2023-01-06T14:01:48.429Z,0.50
2023-01-06T14:04:55.978Z,1.13
2023-01-06T14:07:35.090Z,0.60
2023-01-06T14:10:04.982Z,0.60
2023-01-06T14:12:37.332Z,0.80
2023-01-06T14:15:08.717Z,0.43
2023-01-06T14:17:44.728Z,0.80
2023-01-06T14:20:28.360Z,0.97
2023-01-06T14:23:01.789Z,0.47
2023-01-06T14:25:30.568Z,0.80
2023-01-06T14:28:24.388Z,0.60
2023-01-06T14:30:56.042Z,0.77
2023-01-06T14:33:39.954Z,0.63
2023-01-06T14:36:19.009Z,0.60
2023-01-06T14:38:50.164Z,0.80
2023-01-06T14:41:30.960Z,0.80
2023-01-06T14:44:11.377Z,0.67
2023-01-06T14:46:47.557Z,0.70
2023-01-06T14:49:22.389Z,0.50
2023-01-06T14:51:58.531Z,0.80
2023-01-06T14:54:39.428Z,0.80
2023-01-06T14:57:30.592Z,0.67
2023-01-06T15:00:19.049Z,0.70
2023-01-06T15:02:57.056Z,1.03
2023-01-06T15:05:29.977Z,0.93
2023-01-06T15:08:10.540Z,1.17
2023-01-06T15:10:42.982Z,1.23
2023-01-06T15:13:26.165Z,1.43
2023-01-06T15:16:15.868Z,1.10
2023-01-06T15:18:56.233Z,1.40
2023-01-06T15:21:30.085Z,1.20
2023-01-06T15:24:10.583Z,1.67
2023-01-06T15:26:42.413Z,1.73
2023-01-06T15:29:19.184Z,1.77
2023-01-06T15:31:51.551Z,1.97
2023-01-06T15:34:22.498Z,1.20
2023-01-06T15:37:01.727Z,1.83
2023-01-06T15:39:31.591Z,1.80
2023-01-06T15:42:02.371Z,1.57
2023-01-06T15:44:34.512Z,1.63
2023-01-06T15:47:36.152Z,1.97
2023-01-06T15:50:11.002Z,1.67
2023-01-06T15:52:49.119Z,2.00
2023-01-06T15:55:29.485Z,1.43
2023-01-06T15:58:01.987Z,1.70
2023-01-06T16:00:32.317Z,1.60
2023-01-06T16:03:02.175Z,1.53
2023-01-06T16:05:39.650Z,1.20
2023-01-06T16:08:30.923Z,1.40
2023-01-06T16:11:40.758Z,1.10
2023-01-06T16:14:30.957Z,1.33
2023-01-06T16:17:10.171Z,1.30
2023-01-06T16:19:49.597Z,1.27
2023-01-06T16:22:30.527Z,1.23
2023-01-06T16:24:59.067Z,1.40
2023-01-06T16:27:28.004Z,1.07
2023-01-06T16:30:24.705Z,1.63
2023-01-06T16:32:54.124Z,1.50
2023-01-06T16:35:25.326Z,1.07
2023-01-06T16:37:53.520Z,0.90
2023-01-06T16:40:24.401Z,2.00
2023-01-06T16:42:58.927Z,1.80
2023-01-06T16:45:29.908Z,1.60
2023-01-06T16:47:57.697Z,1.57
2023-01-06T16:50:35.303Z,1.40
2023-01-06T16:53:11.965Z,1.00
2023-01-06T16:55:41.994Z,5.00
2023-01-06T16:58:16.094Z,11.47
2023-01-06T17:00:48.093Z,2.20
2023-01-06T17:03:18.262Z,1.87
2023-01-06T17:05:47.851Z,1.20
2023-01-06T17:08:17.035Z,1.50
2023-01-06T17:10:45.323Z,1.80
2023-01-06T17:13:35.613Z,1.90
2023-01-06T17:16:14.074Z,1.40
2023-01-06T17:18:51.004Z,2.53
2023-01-06T17:21:22.639Z,2.07
2023-01-06T17:23:52.244Z,1.57
2023-01-06T17:26:26.272Z,1.70
2023-01-06T17:28:59.282Z,2.67
2023-01-06T17:31:40.846Z,2.20
2023-01-06T17:34:19.643Z,2.60
2023-01-06T17:36:52.358Z,2.30
2023-01-06T17:39:27.901Z,2.40
2023-01-06T17:42:02.668Z,2.20
2023-01-06T17:44:42.907Z,1.97
2023-01-06T17:47:33.831Z,2.40
2023-01-06T17:50:12.238Z,2.57
2023-01-06T17:53:08.543Z,2.50
2023-01-06T17:55:46.463Z,2.30
2023-01-06T17:58:19.416Z,2.47
2023-01-06T18:00:48.641Z,2.80
2023-01-06T18:03:20.660Z,3.20
2023-01-06T18:06:20.588Z,3.17
2023-01-06T18:09:01.245Z,3.60
2023-01-06T18:11:39.603Z,4.47
2023-01-06T18:14:20.380Z,3.37
2023-01-06T18:16:52.094Z,3.10
2023-01-06T18:19:39.454Z,2.83
2023-01-06T18:22:19.972Z,2.93
2023-01-06T18:24:50.756Z,3.10
2023-01-06T18:27:24.025Z,2.80
2023-01-06T18:29:52.421Z,3.10
2023-01-06T18:32:29.889Z,3.20
2023-01-06T18:34:58.856Z,3.30
2023-01-06T18:37:29.368Z,4.33
2023-01-06T18:40:01.293Z,4.00
2023-01-06T18:42:31.821Z,3.97
2023-01-06T18:45:16.423Z,4.30
2023-01-06T18:47:45.189Z,4.00
2023-01-06T18:50:25.578Z,4.30
2023-01-06T18:52:54.403Z,3.57
2023-01-06T18:55:31.592Z,4.07
2023-01-06T18:58:01.563Z,4.33
2023-01-06T19:00:36.911Z,4.03
2023-01-06T19:03:18.245Z,4.23
2023-01-06T19:05:46.406Z,3.73
2023-01-06T19:08:17.621Z,3.60
2023-01-06T19:10:49.795Z,3.03
2023-01-06T19:13:25.600Z,3.30
2023-01-06T19:15:54.604Z,2.93
2023-01-06T19:18:22.394Z,2.70
2023-01-06T19:20:52.315Z,2.40
2023-01-06T19:23:23.857Z,3.07
2023-01-06T19:26:00.794Z,2.70
2023-01-06T19:28:32.206Z,2.80
2023-01-06T19:31:01.600Z,2.57
2023-01-06T19:33:42.637Z,2.80
2023-01-06T19:36:39.881Z,3.20
2023-01-06T19:39:33.701Z,2.70
2023-01-06T19:42:22.703Z,3.17
2023-01-06T19:44:54.359Z,2.43
2023-01-06T19:47:25.005Z,3.00
2023-01-06T19:49:57.815Z,3.33
2023-01-06T19:52:33.627Z,3.20
2023-01-06T19:55:22.450Z,3.03
2023-01-06T19:57:53.427Z,3.33
2023-01-06T20:00:27.137Z,3.20
2023-01-06T20:02:58.107Z,3.40
2023-01-06T20:05:27.189Z,3.63
2023-01-06T20:07:55.407Z,3.60
2023-01-06T20:10:23.091Z,3.53
2023-01-06T20:12:52.133Z,3.50
2023-01-06T20:15:19.964Z,3.67
2023-01-06T20:17:47.824Z,3.77
2023-01-06T20:20:15.595Z,3.77
2023-01-06T20:22:44.707Z,3.63
2023-01-06T20:25:12.541Z,3.70
2023-01-06T20:27:40.290Z,3.97
2023-01-06T20:30:10.687Z,3.87
2023-01-06T20:32:38.530Z,3.70
2023-01-06T20:35:07.324Z,3.40
2023-01-06T20:37:35.065Z,3.37
2023-01-06T20:40:04.058Z,3.60
2023-01-06T20:42:32.011Z,3.27
2023-01-06T20:44:59.755Z,3.40
2023-01-06T20:47:28.835Z,3.17
2023-01-06T20:49:56.812Z,3.50
2023-01-06T20:52:24.558Z,3.43
2023-01-06T20:54:52.314Z,3.57
2023-01-06T20:57:19.996Z,3.83
2023-01-06T20:59:47.764Z,4.27
2023-01-06T21:02:15.750Z,4.23
2023-01-06T21:04:45.066Z,4.07
2023-01-06T21:07:12.814Z,4.27
2023-01-06T21:09:40.659Z,4.10
2023-01-06T21:12:08.862Z,4.23
2023-01-06T21:14:36.741Z,4.10
2023-01-06T21:17:04.842Z,3.83
2023-01-06T21:19:32.683Z,4.07
2023-01-06T21:22:01.794Z,3.97
2023-01-06T21:24:29.604Z,3.83
2023-01-06T21:26:57.497Z,3.87
2023-01-06T21:29:25.290Z,3.73
2023-01-06T21:31:53.038Z,3.53
2023-01-06T21:34:20.729Z,3.53
2023-01-06T21:36:48.664Z,3.53
2023-01-06T21:39:17.855Z,3.57
2023-01-06T21:42:02.916Z,2.77
2023-01-06T21:44:30.690Z,3.07
2023-01-06T21:46:59.717Z,2.63
2023-01-06T21:49:27.526Z,2.70
2023-01-06T21:51:56.313Z,2.43
2023-01-06T21:54:25.812Z,2.37
2023-01-06T21:56:53.627Z,2.23
2023-01-06T21:59:21.497Z,2.27
2023-01-06T22:01:49.381Z,2.13
2023-01-06T22:04:17.299Z,2.30
2023-01-06T22:06:45.257Z,2.07
2023-01-06T22:09:15.387Z,2.23
2023-01-06T22:11:45.263Z,2.13
2023-01-06T22:14:14.839Z,2.10
2023-01-06T22:16:43.040Z,2.67
2023-01-06T22:19:13.335Z,2.10
2023-01-06T22:21:42.538Z,2.10
2023-01-06T22:24:13.649Z,2.10
2023-01-06T22:26:41.489Z,2.20
2023-01-06T22:29:11.039Z,2.13
2023-01-06T22:31:38.930Z,2.13
2023-01-06T22:34:08.177Z,2.00
2023-01-06T22:36:36.059Z,1.90
2023-01-06T22:39:04.739Z,1.80
2023-01-06T22:41:32.476Z,1.90
2023-01-06T22:44:00.305Z,1.87
2023-01-06T22:46:30.371Z,1.60
2023-01-06T22:48:58.324Z,1.87
2023-01-06T22:51:27.371Z,1.70
2023-01-06T22:53:55.660Z,1.90
2023-01-06T22:56:23.424Z,1.63
2023-01-06T22:58:51.798Z,1.77
2023-01-06T23:01:19.642Z,1.87
2023-01-06T23:03:48.821Z,1.80
2023-01-06T23:06:16.995Z,1.80
2023-01-06T23:08:59.256Z,2.10
2023-01-06T23:11:28.999Z,2.10
2023-01-06T23:13:58.485Z,2.13
2023-01-06T23:16:28.922Z,1.97
2023-01-06T23:18:58.389Z,1.87
2023-01-06T23:21:27.854Z,1.93
2023-01-06T23:23:56.708Z,1.93
2023-01-06T23:26:26.240Z,1.87
2023-01-06T23:28:54.313Z,1.90
2023-01-06T23:31:24.334Z,1.90
2023-01-06T23:33:53.695Z,1.97
2023-01-06T23:36:23.848Z,1.60
2023-01-06T23:38:52.235Z,1.60
2023-01-06T23:41:21.767Z,1.70
2023-01-06T23:43:50.436Z,1.80
2023-01-06T23:46:20.187Z,1.60
2023-01-06T23:48:48.873Z,1.50
2023-01-06T23:51:17.112Z,1.60
2023-01-06T23:53:46.938Z,1.83
2023-01-06T23:56:16.417Z,1.90
2023-01-06T23:58:45.839Z,1.83
